sensor_id;sensor_type;location;lat;lon;timestamp;pressure;altitude;pressure_sealevel;temperature;humidity
12594;BME280;6362;50.208;9.182;2022-12-07T00:02:01;99934.22;;;1.76;100.00
12594;BME280;6362;50.208;9.182;2022-12-07T00:04:26;99930.91;;;1.77;100.00
12594;BME280;6362;50.208;9.182;2022-12-07T00:06:52;99935.19;;;1.79;100.00
12594;BME280;6362;50.208;9.182;2022-12-07T00:09:18;99932.03;;;1.83;100.00
12594;BME280;6362;50.208;9.182;2022-12-07T00:11:45;99922.19;;;1.88;100.00
12594;BME280;6362;50.208;9.182;2022-12-07T00:14:15;99928.88;;;1.87;100.00
12594;BME280;6362;50.208;9.182;2022-12-07T00:16:41;99926.16;;;1.83;100.00
12594;BME280;6362;50.208;9.182;2022-12-07T00:19:06;99922.09;;;1.86;100.00
12594;BME280;6362;50.208;9.182;2022-12-07T00:21:34;99917.88;;;1.85;100.00
12594;BME280;6362;50.208;9.182;2022-12-07T00:24:00;99913.63;;;1.84;100.00
12594;BME280;6362;50.208;9.182;2022-12-07T00:26:28;99911.19;;;1.86;100.00
12594;BME280;6362;50.208;9.182;2022-12-07T00:28:56;99902.88;;;1.87;100.00
12594;BME280;6362;50.208;9.182;2022-12-07T00:31:24;99901.22;;;1.87;100.00
12594;BME280;6362;50.208;9.182;2022-12-07T00:33:51;99896.22;;;1.89;100.00
12594;BME280;6362;50.208;9.182;2022-12-07T00:36:19;99896.50;;;1.95;100.00
12594;BME280;6362;50.208;9.182;2022-12-07T00:38:45;99896.16;;;2.05;100.00
12594;BME280;6362;50.208;9.182;2022-12-07T00:41:12;99896.94;;;2.04;100.00
12594;BME280;6362;50.208;9.182;2022-12-07T00:43:39;99890.97;;;2.02;100.00
12594;BME280;6362;50.208;9.182;2022-12-07T00:46:05;99896.00;;;2.02;100.00
12594;BME280;6362;50.208;9.182;2022-12-07T00:48:30;99889.13;;;1.98;100.00
12594;BME280;6362;50.208;9.182;2022-12-07T00:50:56;99881.50;;;1.97;100.00
12594;BME280;6362;50.208;9.182;2022-12-07T00:53:22;99890.03;;;2.00;100.00
12594;BME280;6362;50.208;9.182;2022-12-07T00:55:48;99889.34;;;2.03;100.00
12594;BME280;6362;50.208;9.182;2022-12-07T00:58:14;99884.22;;;2.01;100.00
12594;BME280;6362;50.208;9.182;2022-12-07T01:00:41;99893.34;;;1.99;100.00
12594;BME280;6362;50.208;9.182;2022-12-07T01:03:08;99890.13;;;2.02;100.00
12594;BME280;6362;50.208;9.182;2022-12-07T01:05:34;99881.78;;;2.03;100.00
12594;BME280;6362;50.208;9.182;2022-12-07T01:08:00;99884.50;;;2.07;100.00
12594;BME280;6362;50.208;9.182;2022-12-07T01:10:26;99882.13;;;2.11;100.00
12594;BME280;6362;50.208;9.182;2022-12-07T01:12:51;99887.06;;;2.09;100.00
12594;BME280;6362;50.208;9.182;2022-12-07T01:15:17;99880.44;;;2.11;100.00
12594;BME280;6362;50.208;9.182;2022-12-07T01:17:43;99875.56;;;2.14;100.00
12594;BME280;6362;50.208;9.182;2022-12-07T01:20:09;99890.72;;;2.16;100.00
12594;BME280;6362;50.208;9.182;2022-12-07T01:22:39;99889.75;;;2.12;100.00
12594;BME280;6362;50.208;9.182;2022-12-07T01:25:06;99885.63;;;2.14;100.00
12594;BME280;6362;50.208;9.182;2022-12-07T01:27:32;99884.91;;;2.17;100.00
12594;BME280;6362;50.208;9.182;2022-12-07T01:29:58;99884.06;;;2.16;100.00
12594;BME280;6362;50.208;9.182;2022-12-07T01:32:23;99886.63;;;2.18;100.00
12594;BME280;6362;50.208;9.182;2022-12-07T01:34:48;99882.41;;;2.17;100.00
12594;BME280;6362;50.208;9.182;2022-12-07T01:37:14;99874.03;;;2.18;100.00
12594;BME280;6362;50.208;9.182;2022-12-07T01:39:39;99875.56;;;2.14;100.00
12594;BME280;6362;50.208;9.182;2022-12-07T01:42:09;99863.03;;;2.16;100.00
12594;BME280;6362;50.208;9.182;2022-12-07T01:47:58;99872.97;;;2.13;100.00
12594;BME280;6362;50.208;9.182;2022-12-07T01:50:26;99882.19;;;2.12;100.00
12594;BME280;6362;50.208;9.182;2022-12-07T01:52:54;99878.13;;;2.16;100.00
12594;BME280;6362;50.208;9.182;2022-12-07T01:55:21;99883.13;;;2.14;100.00
12594;BME280;6362;50.208;9.182;2022-12-07T01:57:50;99877.22;;;2.14;100.00
12594;BME280;6362;50.208;9.182;2022-12-07T02:00:17;99870.00;;;2.21;100.00
12594;BME280;6362;50.208;9.182;2022-12-07T02:02:47;99878.63;;;2.26;100.00
12594;BME280;6362;50.208;9.182;2022-12-07T02:05:16;99867.25;;;2.35;100.00
12594;BME280;6362;50.208;9.182;2022-12-07T02:07:42;99862.31;;;2.38;100.00
12594;BME280;6362;50.208;9.182;2022-12-07T02:10:20;99870.28;;;2.27;100.00
12594;BME280;6362;50.208;9.182;2022-12-07T02:12:48;99862.47;;;2.21;100.00
12594;BME280;6362;50.208;9.182;2022-12-07T02:15:15;99861.84;;;2.27;100.00
12594;BME280;6362;50.208;9.182;2022-12-07T02:18:01;99861.84;;;2.27;100.00
12594;BME280;6362;50.208;9.182;2022-12-07T02:20:39;99852.53;;;2.44;100.00
12594;BME280;6362;50.208;9.182;2022-12-07T02:24:13;99849.06;;;2.42;100.00
12594;BME280;6362;50.208;9.182;2022-12-07T02:29:35;99851.59;;;2.42;100.00
12594;BME280;6362;50.208;9.182;2022-12-07T02:32:26;99842.91;;;2.35;100.00
12594;BME280;6362;50.208;9.182;2022-12-07T02:38:01;99842.53;;;2.26;100.00
12594;BME280;6362;50.208;9.182;2022-12-07T02:40:38;99840.28;;;2.32;100.00
12594;BME280;6362;50.208;9.182;2022-12-07T02:45:39;99837.81;;;2.34;100.00
12594;BME280;6362;50.208;9.182;2022-12-07T02:48:06;99833.19;;;2.23;100.00
12594;BME280;6362;50.208;9.182;2022-12-07T02:50:35;99834.78;;;2.21;100.00
12594;BME280;6362;50.208;9.182;2022-12-07T02:53:00;99830.53;;;2.20;100.00
12594;BME280;6362;50.208;9.182;2022-12-07T02:55:29;99831.41;;;2.21;100.00
12594;BME280;6362;50.208;9.182;2022-12-07T02:58:40;99836.56;;;2.24;100.00
12594;BME280;6362;50.208;9.182;2022-12-07T03:01:25;99830.91;;;2.29;100.00
12594;BME280;6362;50.208;9.182;2022-12-07T03:06:50;99836.84;;;2.30;100.00
12594;BME280;6362;50.208;9.182;2022-12-07T03:09:33;99847.56;;;2.26;100.00
12594;BME280;6362;50.208;9.182;2022-12-07T03:14:37;99837.69;;;2.31;100.00
12594;BME280;6362;50.208;9.182;2022-12-07T03:17:19;99832.66;;;2.31;100.00
12594;BME280;6362;50.208;9.182;2022-12-07T03:19:49;99825.88;;;2.29;100.00
12594;BME280;6362;50.208;9.182;2022-12-07T03:22:17;99824.63;;;2.39;100.00
12594;BME280;6362;50.208;9.182;2022-12-07T03:24:52;99827.38;;;2.45;100.00
12594;BME280;6362;50.208;9.182;2022-12-07T03:27:22;99824.47;;;2.36;100.00
12594;BME280;6362;50.208;9.182;2022-12-07T03:29:54;99826.16;;;2.36;100.00
12594;BME280;6362;50.208;9.182;2022-12-07T03:32:29;99827.69;;;2.32;100.00
12594;BME280;6362;50.208;9.182;2022-12-07T03:35:07;99821.66;;;2.28;100.00
12594;BME280;6362;50.208;9.182;2022-12-07T03:41:05;99823.72;;;2.37;100.00
12594;BME280;6362;50.208;9.182;2022-12-07T03:43:33;99822.84;;;2.37;100.00
12594;BME280;6362;50.208;9.182;2022-12-07T03:48:40;99818.06;;;2.43;100.00
12594;BME280;6362;50.208;9.182;2022-12-07T03:51:18;99822.34;;;2.45;100.00
12594;BME280;6362;50.208;9.182;2022-12-07T03:54:00;99822.25;;;2.42;100.00
12594;BME280;6362;50.208;9.182;2022-12-07T03:56:27;99820.25;;;2.35;100.00
12594;BME280;6362;50.208;9.182;2022-12-07T03:58:54;99817.94;;;2.40;100.00
12594;BME280;6362;50.208;9.182;2022-12-07T04:01:20;99821.19;;;2.37;100.00
12594;BME280;6362;50.208;9.182;2022-12-07T04:03:45;99814.41;;;2.36;100.00
12594;BME280;6362;50.208;9.182;2022-12-07T04:06:11;99810.50;;;2.43;100.00
12594;BME280;6362;50.208;9.182;2022-12-07T04:08:36;99804.50;;;2.39;100.00
12594;BME280;6362;50.208;9.182;2022-12-07T04:11:02;99800.50;;;2.44;100.00
12594;BME280;6362;50.208;9.182;2022-12-07T04:13:27;99801.16;;;2.40;100.00
12594;BME280;6362;50.208;9.182;2022-12-07T04:15:53;99799.47;;;2.39;100.00
12594;BME280;6362;50.208;9.182;2022-12-07T04:18:18;99801.13;;;2.39;100.00
12594;BME280;6362;50.208;9.182;2022-12-07T04:20:45;99801.84;;;2.36;100.00
12594;BME280;6362;50.208;9.182;2022-12-07T04:23:10;99803.88;;;2.45;100.00
12594;BME280;6362;50.208;9.182;2022-12-07T04:25:36;99806.41;;;2.45;100.00
12594;BME280;6362;50.208;9.182;2022-12-07T04:28:01;99807.97;;;2.43;100.00
12594;BME280;6362;50.208;9.182;2022-12-07T04:30:26;99802.38;;;2.48;100.00
12594;BME280;6362;50.208;9.182;2022-12-07T04:32:52;99803.88;;;2.45;100.00
12594;BME280;6362;50.208;9.182;2022-12-07T04:35:17;99794.53;;;2.42;100.00
12594;BME280;6362;50.208;9.182;2022-12-07T04:37:43;99806.16;;;2.39;100.00
12594;BME280;6362;50.208;9.182;2022-12-07T04:40:08;99804.63;;;2.42;100.00
12594;BME280;6362;50.208;9.182;2022-12-07T04:42:36;99810.56;;;2.44;100.00
12594;BME280;6362;50.208;9.182;2022-12-07T04:45:02;99799.03;;;2.49;100.00
12594;BME280;6362;50.208;9.182;2022-12-07T04:47:28;99799.09;;;2.51;100.00
12594;BME280;6362;50.208;9.182;2022-12-07T04:49:53;99805.66;;;2.47;100.00
12594;BME280;6362;50.208;9.182;2022-12-07T04:52:18;99806.41;;;2.45;100.00
12594;BME280;6362;50.208;9.182;2022-12-07T04:54:44;99800.34;;;2.61;100.00
12594;BME280;6362;50.208;9.182;2022-12-07T04:57:09;99799.59;;;2.63;100.00
12594;BME280;6362;50.208;9.182;2022-12-07T04:59:35;99803.75;;;2.61;100.00
12594;BME280;6362;50.208;9.182;2022-12-07T05:02:00;99800.53;;;2.65;100.00
12594;BME280;6362;50.208;9.182;2022-12-07T05:04:25;99808.88;;;2.64;100.00
12594;BME280;6362;50.208;9.182;2022-12-07T05:06:51;99799.56;;;2.62;100.00
12594;BME280;6362;50.208;9.182;2022-12-07T05:09:16;99799.47;;;2.60;100.00
12594;BME280;6362;50.208;9.182;2022-12-07T05:11:42;99792.84;;;2.62;100.00
12594;BME280;6362;50.208;9.182;2022-12-07T05:14:12;99804.44;;;2.59;100.00
12594;BME280;6362;50.208;9.182;2022-12-07T05:16:38;99805.94;;;2.54;100.00
12594;BME280;6362;50.208;9.182;2022-12-07T05:19:04;99799.97;;;2.52;100.00
12594;BME280;6362;50.208;9.182;2022-12-07T05:21:30;99805.34;;;2.59;100.00
12594;BME280;6362;50.208;9.182;2022-12-07T05:23:56;99804.94;;;2.50;100.00
12594;BME280;6362;50.208;9.182;2022-12-07T05:26:22;99807.41;;;2.48;100.00
12594;BME280;6362;50.208;9.182;2022-12-07T05:28:54;99804.06;;;2.49;100.00
12594;BME280;6362;50.208;9.182;2022-12-07T05:31:21;99806.78;;;2.54;100.00
12594;BME280;6362;50.208;9.182;2022-12-07T05:33:47;99802.06;;;2.62;100.00
12594;BME280;6362;50.208;9.182;2022-12-07T05:36:12;99804.34;;;2.56;100.00
12594;BME280;6362;50.208;9.182;2022-12-07T05:38:38;99797.03;;;2.62;100.00
12594;BME280;6362;50.208;9.182;2022-12-07T05:41:05;99799.47;;;2.60;100.00
12594;BME280;6362;50.208;9.182;2022-12-07T05:43:31;99795.44;;;2.64;100.00
12594;BME280;6362;50.208;9.182;2022-12-07T05:45:58;99800.41;;;2.62;100.00
12594;BME280;6362;50.208;9.182;2022-12-07T05:48:23;99795.31;;;2.61;100.00
12594;BME280;6362;50.208;9.182;2022-12-07T05:50:50;99789.53;;;2.63;100.00
12594;BME280;6362;50.208;9.182;2022-12-07T05:53:16;99798.94;;;2.67;100.00
12594;BME280;6362;50.208;9.182;2022-12-07T05:55:41;99803.97;;;2.67;100.00
12594;BME280;6362;50.208;9.182;2022-12-07T05:58:07;99795.66;;;2.70;100.00
12594;BME280;6362;50.208;9.182;2022-12-07T06:00:51;99797.66;;;2.77;100.00
12594;BME280;6362;50.208;9.182;2022-12-07T06:03:16;99799.19;;;2.74;100.00
12594;BME280;6362;50.208;9.182;2022-12-07T06:05:42;99791.53;;;2.70;100.00
12594;BME280;6362;50.208;9.182;2022-12-07T06:08:07;99797.78;;;2.80;100.00
12594;BME280;6362;50.208;9.182;2022-12-07T06:10:33;99790.78;;;2.73;100.00
12594;BME280;6362;50.208;9.182;2022-12-07T06:12:58;99793.84;;;2.66;100.00
12594;BME280;6362;50.208;9.182;2022-12-07T06:15:24;99800.03;;;2.74;100.00
12594;BME280;6362;50.208;9.182;2022-12-07T06:17:49;99795.16;;;2.77;100.00
12594;BME280;6362;50.208;9.182;2022-12-07T06:20:15;99793.03;;;2.67;100.00
12594;BME280;6362;50.208;9.182;2022-12-07T06:22:40;99794.56;;;2.63;100.00
12594;BME280;6362;50.208;9.182;2022-12-07T06:25:06;99795.44;;;2.85;100.00
12594;BME280;6362;50.208;9.182;2022-12-07T06:27:32;99788.47;;;3.21;100.00
12594;BME280;6362;50.208;9.182;2022-12-07T06:29:58;99796.44;;;3.32;100.00
12594;BME280;6362;50.208;9.182;2022-12-07T06:32:23;99794.09;;;3.59;100.00
12594;BME280;6362;50.208;9.182;2022-12-07T06:34:49;99791.97;;;3.70;100.00
12594;BME280;6362;50.208;9.182;2022-12-07T06:37:14;99790.84;;;4.08;100.00
12594;BME280;6362;50.208;9.182;2022-12-07T06:39:39;99792.06;;;4.20;100.00
12594;BME280;6362;50.208;9.182;2022-12-07T06:42:05;99798.66;;;4.16;100.00
12594;BME280;6362;50.208;9.182;2022-12-07T06:44:30;99790.75;;;4.07;100.00
12594;BME280;6362;50.208;9.182;2022-12-07T06:46:56;99796.56;;;4.04;100.00
12594;BME280;6362;50.208;9.182;2022-12-07T06:49:21;99790.22;;;3.91;100.00
12594;BME280;6362;50.208;9.182;2022-12-07T06:51:47;99791.56;;;3.82;100.00
12594;BME280;6362;50.208;9.182;2022-12-07T06:54:14;99795.25;;;3.67;100.00
12594;BME280;6362;50.208;9.182;2022-12-07T06:56:40;99795.78;;;3.59;100.00
12594;BME280;6362;50.208;9.182;2022-12-07T06:59:06;99794.63;;;3.50;100.00
12594;BME280;6362;50.208;9.182;2022-12-07T07:01:33;99800.50;;;3.51;100.00
12594;BME280;6362;50.208;9.182;2022-12-07T07:03:59;99804.59;;;3.47;100.00
12594;BME280;6362;50.208;9.182;2022-12-07T07:06:25;99807.06;;;3.46;100.00
12594;BME280;6362;50.208;9.182;2022-12-07T07:08:50;99806.78;;;3.38;100.00
12594;BME280;6362;50.208;9.182;2022-12-07T07:11:16;99804.78;;;3.31;100.00
12594;BME280;6362;50.208;9.182;2022-12-07T07:13:41;99810.66;;;3.30;100.00
12594;BME280;6362;50.208;9.182;2022-12-07T07:16:07;99810.53;;;3.27;100.00
12594;BME280;6362;50.208;9.182;2022-12-07T07:18:33;99809.63;;;3.25;100.00
12594;BME280;6362;50.208;9.182;2022-12-07T07:20:58;99819.38;;;3.17;100.00
12594;BME280;6362;50.208;9.182;2022-12-07T07:23:24;99815.84;;;3.12;100.00
12594;BME280;6362;50.208;9.182;2022-12-07T07:25:49;99815.16;;;3.16;100.00
12594;BME280;6362;50.208;9.182;2022-12-07T07:28:15;99807.41;;;3.11;100.00
12594;BME280;6362;50.208;9.182;2022-12-07T07:30:41;99816.88;;;3.17;100.00
12594;BME280;6362;50.208;9.182;2022-12-07T07:33:06;99806.56;;;3.11;100.00
12594;BME280;6362;50.208;9.182;2022-12-07T07:35:33;99810.72;;;3.10;100.00
12594;BME280;6362;50.208;9.182;2022-12-07T07:37:59;99812.47;;;3.11;100.00
12594;BME280;6362;50.208;9.182;2022-12-07T07:40:25;99812.47;;;3.11;100.00
12594;BME280;6362;50.208;9.182;2022-12-07T07:42:52;99805.66;;;3.09;100.00
12594;BME280;6362;50.208;9.182;2022-12-07T07:45:19;99817.44;;;3.10;100.00
12594;BME280;6362;50.208;9.182;2022-12-07T07:47:45;99808.53;;;3.18;100.00
12594;BME280;6362;50.208;9.182;2022-12-07T07:50:10;99802.84;;;3.24;100.00
12594;BME280;6362;50.208;9.182;2022-12-07T07:52:36;99814.84;;;3.29;100.00
12594;BME280;6362;50.208;9.182;2022-12-07T07:55:02;99808.94;;;3.29;100.00
12594;BME280;6362;50.208;9.182;2022-12-07T07:57:27;99815.44;;;3.24;100.00
12594;BME280;6362;50.208;9.182;2022-12-07T07:59:53;99812.25;;;3.28;100.00
12594;BME280;6362;50.208;9.182;2022-12-07T08:02:19;99808.19;;;3.31;100.00
12594;BME280;6362;50.208;9.182;2022-12-07T08:04:45;99816.53;;;3.30;100.00
12594;BME280;6362;50.208;9.182;2022-12-07T08:07:12;99819.03;;;3.29;100.00
12594;BME280;6362;50.208;9.182;2022-12-07T08:09:38;99825.72;;;3.28;100.00
12594;BME280;6362;50.208;9.182;2022-12-07T08:12:04;99827.47;;;3.31;100.00
12594;BME280;6362;50.208;9.182;2022-12-07T08:14:30;99829.22;;;3.32;100.00
12594;BME280;6362;50.208;9.182;2022-12-07T08:16:56;99823.31;;;3.31;100.00
12594;BME280;6362;50.208;9.182;2022-12-07T08:19:21;99822.41;;;3.29;100.00
12594;BME280;6362;50.208;9.182;2022-12-07T08:21:47;99822.41;;;3.29;100.00
12594;BME280;6362;50.208;9.182;2022-12-07T08:24:13;99821.41;;;3.47;100.00
12594;BME280;6362;50.208;9.182;2022-12-07T08:26:38;99824.94;;;3.52;100.00
12594;BME280;6362;50.208;9.182;2022-12-07T08:29:04;99824.09;;;3.51;100.00
12594;BME280;6362;50.208;9.182;2022-12-07T08:31:29;99828.25;;;3.51;100.00
12594;BME280;6362;50.208;9.182;2022-12-07T08:33:55;99829.81;;;3.47;100.00
12594;BME280;6362;50.208;9.182;2022-12-07T08:36:20;99822.28;;;3.49;100.00
12594;BME280;6362;50.208;9.182;2022-12-07T08:38:48;99825.63;;;3.48;100.00
12594;BME280;6362;50.208;9.182;2022-12-07T08:41:13;99828.06;;;3.46;100.00
12594;BME280;6362;50.208;9.182;2022-12-07T08:43:39;99830.59;;;3.46;100.00
12594;BME280;6362;50.208;9.182;2022-12-07T08:48:54;99831.41;;;3.45;100.00
12594;BME280;6362;50.208;9.182;2022-12-07T08:51:22;99836.47;;;3.45;100.00
12594;BME280;6362;50.208;9.182;2022-12-07T08:53:49;99841.50;;;3.45;100.00
12594;BME280;6362;50.208;9.182;2022-12-07T08:56:15;99838.91;;;3.44;100.00
12594;BME280;6362;50.208;9.182;2022-12-07T08:58:40;99842.25;;;3.43;100.00
12594;BME280;6362;50.208;9.182;2022-12-07T09:01:06;99848.94;;;3.42;100.00
12594;BME280;6362;50.208;9.182;2022-12-07T09:03:32;99842.28;;;3.44;100.00
12594;BME280;6362;50.208;9.182;2022-12-07T09:05:58;99834.53;;;3.40;100.00
12594;BME280;6362;50.208;9.182;2022-12-07T09:08:27;99842.81;;;3.36;100.00
12594;BME280;6362;50.208;9.182;2022-12-07T09:10:54;99838.06;;;3.43;100.00
12594;BME280;6362;50.208;9.182;2022-12-07T09:13:19;99843.00;;;3.63;100.00
12594;BME280;6362;50.208;9.182;2022-12-07T09:15:45;99842.78;;;3.79;100.00
12594;BME280;6362;50.208;9.182;2022-12-07T09:18:10;99842.38;;;3.91;100.00
12594;BME280;6362;50.208;9.182;2022-12-07T09:20:36;99847.28;;;4.10;100.00
12594;BME280;6362;50.208;9.182;2022-12-07T09:23:01;99847.78;;;4.24;100.00
12594;BME280;6362;50.208;9.182;2022-12-07T09:25:26;99845.50;;;4.32;100.00
12594;BME280;6362;50.208;9.182;2022-12-07T09:27:56;99840.75;;;4.40;100.00
12594;BME280;6362;50.208;9.182;2022-12-07T09:30:22;99846.16;;;4.50;100.00
12594;BME280;6362;50.208;9.182;2022-12-07T09:32:47;99844.59;;;4.54;100.00
12594;BME280;6362;50.208;9.182;2022-12-07T09:35:13;99848.13;;;4.59;100.00
12594;BME280;6362;50.208;9.182;2022-12-07T09:37:38;99856.00;;;4.68;100.00
12594;BME280;6362;50.208;9.182;2022-12-07T09:40:04;99849.41;;;4.72;100.00
12594;BME280;6362;50.208;9.182;2022-12-07T09:42:32;99848.44;;;4.68;100.00
12594;BME280;6362;50.208;9.182;2022-12-07T09:44:59;99843.88;;;4.82;100.00
12594;BME280;6362;50.208;9.182;2022-12-07T09:47:26;99845.47;;;4.80;100.00
12594;BME280;6362;50.208;9.182;2022-12-07T09:49:55;99839.50;;;4.78;100.00
12594;BME280;6362;50.208;9.182;2022-12-07T09:52:27;99841.22;;;4.79;100.00
12594;BME280;6362;50.208;9.182;2022-12-07T09:54:53;99833.69;;;4.80;100.00
12594;BME280;6362;50.208;9.182;2022-12-07T09:57:30;99832.72;;;4.77;100.00
12594;BME280;6362;50.208;9.182;2022-12-07T10:00:04;99831.88;;;4.76;100.00
12594;BME280;6362;50.208;9.182;2022-12-07T10:02:40;99828.19;;;4.67;100.00
12594;BME280;6362;50.208;9.182;2022-12-07T10:05:14;99826.72;;;4.73;100.00
12594;BME280;6362;50.208;9.182;2022-12-07T10:07:41;99819.38;;;4.81;100.00
12594;BME280;6362;50.208;9.182;2022-12-07T10:10:13;99820.53;;;4.91;100.00
12594;BME280;6362;50.208;9.182;2022-12-07T10:13:00;99819.19;;;5.02;100.00
12594;BME280;6362;50.208;9.182;2022-12-07T10:15:51;99812.94;;;5.16;100.00
12594;BME280;6362;50.208;9.182;2022-12-07T10:18:34;99822.13;;;5.14;100.00
12594;BME280;6362;50.208;9.182;2022-12-07T10:23:38;99817.28;;;4.93;100.00
12594;BME280;6362;50.208;9.182;2022-12-07T10:26:20;99816.84;;;4.81;100.00
12594;BME280;6362;50.208;9.182;2022-12-07T10:28:50;99809.19;;;4.78;100.00
12594;BME280;6362;50.208;9.182;2022-12-07T10:31:19;99812.16;;;4.66;100.00
12594;BME280;6362;50.208;9.182;2022-12-07T10:34:12;99809.78;;;4.71;100.00
12594;BME280;6362;50.208;9.182;2022-12-07T10:36:40;99807.28;;;4.71;100.00
12594;BME280;6362;50.208;9.182;2022-12-07T10:39:18;99810.94;;;4.80;100.00
12594;BME280;6362;50.208;9.182;2022-12-07T10:41:57;99808.72;;;4.90;100.00
12594;BME280;6362;50.208;9.182;2022-12-07T10:44:28;99808.09;;;4.97;100.00
12594;BME280;6362;50.208;9.182;2022-12-07T10:49:43;99796.94;;;4.90;100.00
12594;BME280;6362;50.208;9.182;2022-12-07T10:55:31;99794.03;;;4.78;100.00
12594;BME280;6362;50.208;9.182;2022-12-07T11:00:26;99785.31;;;4.70;100.00
12594;BME280;6362;50.208;9.182;2022-12-07T11:05:53;99779.56;;;4.74;100.00
12594;BME280;6362;50.208;9.182;2022-12-07T11:13:56;99772.22;;;4.82;100.00
12594;BME280;6362;50.208;9.182;2022-12-07T11:16:51;99767.28;;;4.85;100.00
12594;BME280;6362;50.208;9.182;2022-12-07T11:23:02;99762.34;;;5.16;100.00
12594;BME280;6362;50.208;9.182;2022-12-07T11:25:42;99755.25;;;5.33;100.00
12594;BME280;6362;50.208;9.182;2022-12-07T11:33:38;99752.78;;;5.63;100.00
12594;BME280;6362;50.208;9.182;2022-12-07T11:38:52;99743.84;;;5.76;100.00
12594;BME280;6362;50.208;9.182;2022-12-07T11:41:29;99735.44;;;5.77;100.00
12594;BME280;6362;50.208;9.182;2022-12-07T11:44:38;99737.91;;;5.74;100.00
12594;BME280;6362;50.208;9.182;2022-12-07T11:47:09;99738.75;;;6.05;100.00
12594;BME280;6362;50.208;9.182;2022-12-07T11:49:53;99729.09;;;6.23;100.00
12594;BME280;6362;50.208;9.182;2022-12-07T11:52:25;99727.44;;;6.25;100.00
12594;BME280;6362;50.208;9.182;2022-12-07T11:54:57;99723.16;;;6.21;100.00
12594;BME280;6362;50.208;9.182;2022-12-07T11:57:44;99716.91;;;6.10;100.00
12594;BME280;6362;50.208;9.182;2022-12-07T12:00:16;99704.19;;;6.07;100.00
12594;BME280;6362;50.208;9.182;2022-12-07T12:03:07;99706.53;;;5.99;100.00
12594;BME280;6362;50.208;9.182;2022-12-07T12:05:36;99704.06;;;6.02;100.00
12594;BME280;6362;50.208;9.182;2022-12-07T12:08:17;99702.22;;;5.95;100.00
12594;BME280;6362;50.208;9.182;2022-12-07T12:11:36;99703.69;;;5.89;100.00
12594;BME280;6362;50.208;9.182;2022-12-07T12:22:16;99688.66;;;7.40;99.36
12594;BME280;6362;50.208;9.182;2022-12-07T12:24:45;99700.38;;;7.34;94.19
12594;BME280;6362;50.208;9.182;2022-12-07T12:27:34;99683.69;;;7.04;94.29
12594;BME280;6362;50.208;9.182;2022-12-07T12:30:02;99688.84;;;6.69;96.36
12594;BME280;6362;50.208;9.182;2022-12-07T12:32:38;99687.56;;;6.52;98.55
12594;BME280;6362;50.208;9.182;2022-12-07T12:37:53;99686.69;;;6.50;100.00
12594;BME280;6362;50.208;9.182;2022-12-07T12:45:22;99679.25;;;6.57;100.00
12594;BME280;6362;50.208;9.182;2022-12-07T12:50:29;99671.72;;;6.60;100.00
12594;BME280;6362;50.208;9.182;2022-12-07T12:52:55;99665.56;;;6.51;100.00
12594;BME280;6362;50.208;9.182;2022-12-07T12:55:43;99676.25;;;6.37;100.00
12594;BME280;6362;50.208;9.182;2022-12-07T13:00:44;99677.28;;;6.11;100.00
12594;BME280;6362;50.208;9.182;2022-12-07T13:03:23;99667.56;;;5.94;100.00
12594;BME280;6362;50.208;9.182;2022-12-07T13:09:15;99668.00;;;5.79;100.00
12594;BME280;6362;50.208;9.182;2022-12-07T13:11:44;99676.34;;;5.75;100.00
12594;BME280;6362;50.208;9.182;2022-12-07T13:14:38;99671.81;;;5.65;100.00
12594;BME280;6362;50.208;9.182;2022-12-07T13:17:08;99675.63;;;5.49;100.00
12594;BME280;6362;50.208;9.182;2022-12-07T13:20:03;99663.53;;;5.39;100.00
12594;BME280;6362;50.208;9.182;2022-12-07T13:27:43;99664.53;;;5.14;100.00
12594;BME280;6362;50.208;9.182;2022-12-07T13:30:19;99668.53;;;5.07;100.00
12594;BME280;6362;50.208;9.182;2022-12-07T13:32:55;99668.84;;;4.89;100.00
12594;BME280;6362;50.208;9.182;2022-12-07T13:35:41;99668.94;;;4.92;100.00
12594;BME280;6362;50.208;9.182;2022-12-07T13:38:39;99685.44;;;4.81;100.00
12594;BME280;6362;50.208;9.182;2022-12-07T13:41:18;99694.94;;;4.61;100.00
12594;BME280;6362;50.208;9.182;2022-12-07T13:43:47;99698.28;;;4.34;100.00
12594;BME280;6362;50.208;9.182;2022-12-07T13:46:13;99683.44;;;4.18;100.00
12594;BME280;6362;50.208;9.182;2022-12-07T13:48:49;99679.84;;;4.11;100.00
12594;BME280;6362;50.208;9.182;2022-12-07T13:51:23;99681.28;;;4.03;100.00
12594;BME280;6362;50.208;9.182;2022-12-07T13:53:55;99675.19;;;3.98;100.00
12594;BME280;6362;50.208;9.182;2022-12-07T13:56:22;99672.44;;;3.90;100.00
12594;BME280;6362;50.208;9.182;2022-12-07T13:58:51;99672.53;;;3.93;100.00
12594;BME280;6362;50.208;9.182;2022-12-07T14:01:17;99667.91;;;4.58;100.00
12594;BME280;6362;50.208;9.182;2022-12-07T14:03:43;99666.81;;;6.32;100.00
12594;BME280;6362;50.208;9.182;2022-12-07T14:06:18;99677.16;;;8.03;100.00
12594;BME280;6362;50.208;9.182;2022-12-07T14:08:45;99675.59;;;8.62;100.00
12594;BME280;6362;50.208;9.182;2022-12-07T14:11:17;99671.97;;;9.77;96.90
12594;BME280;6362;50.208;9.182;2022-12-07T14:13:54;99678.28;;;11.35;80.70
12594;BME280;6362;50.208;9.182;2022-12-07T14:18:46;99665.31;;;10.94;77.23
12594;BME280;6362;50.208;9.182;2022-12-07T14:23:39;99670.75;;;9.43;85.33
12594;BME280;6362;50.208;9.182;2022-12-07T14:26:08;99665.50;;;8.65;92.35
12594;BME280;6362;50.208;9.182;2022-12-07T14:28:37;99671.63;;;7.77;99.07
12594;BME280;6362;50.208;9.182;2022-12-07T14:31:03;99665.38;;;7.17;100.00
12594;BME280;6362;50.208;9.182;2022-12-07T14:33:29;99660.84;;;6.66;100.00
12594;BME280;6362;50.208;9.182;2022-12-07T14:35:55;99662.72;;;6.37;100.00
12594;BME280;6362;50.208;9.182;2022-12-07T14:38:23;99661.81;;;6.00;100.00
12594;BME280;6362;50.208;9.182;2022-12-07T14:40:50;99661.84;;;5.70;100.00
12594;BME280;6362;50.208;9.182;2022-12-07T14:43:17;99657.88;;;5.48;100.00
12594;BME280;6362;50.208;9.182;2022-12-07T14:45:43;99654.84;;;5.29;100.00
12594;BME280;6362;50.208;9.182;2022-12-07T14:48:14;99655.13;;;5.10;100.00
12594;BME280;6362;50.208;9.182;2022-12-07T14:50:45;99655.16;;;4.83;100.00
12594;BME280;6362;50.208;9.182;2022-12-07T14:53:16;99648.78;;;4.67;100.00
12594;BME280;6362;50.208;9.182;2022-12-07T14:55:42;99655.97;;;4.54;100.00
12594;BME280;6362;50.208;9.182;2022-12-07T14:58:15;99642.59;;;4.30;100.00